Time;durP1;ratioP1;P1;durP2;ratioP2;P2;SDS_P1;SDS_P2;PMS_P1;PMS_P2;Temp;Humidity;BMP_temperature;BMP_pressure;BME280_temperature;BME280_humidity;BME280_pressure;Samples;Min_cycle;Max_cycle;Signal;HPM_P1;HPM_P2
2021/10/11 07:58:37;;;;;;;43.30;27.98;;;282.30;2278.40;;;;;;5157070;27;20103;-70
2021/10/11 08:01:07;;;;;;;292.05;183.88;;;282.10;2278.40;;;;;;5143137;27;20047;-69
2021/10/11 08:03:33;;;;;;;146.80;87.55;;;282.00;2278.40;;;;;;5145357;27;20019;-69
2021/10/11 08:06:04;;;;;;;59.05;41.08;;;282.00;2278.40;;;;;;5149503;27;20118;-70
2021/10/11 08:08:32;;;;;;;53.85;44.75;;;282.00;2278.40;;;;;;5125883;27;20121;-70
2021/10/11 08:11:03;;;;;;;47.75;33.90;;;282.10;2278.40;;;;;;5119344;27;20023;-70
2021/10/11 08:13:31;;;;;;;46.83;30.67;;;282.20;2278.40;;;;;;5141266;27;20052;-70
2021/10/11 08:16:01;;;;;;;39.47;28.63;;;282.30;2278.40;;;;;;5130186;27;20476;-69
2021/10/11 08:18:29;;;;;;;33.67;25.15;;;282.40;2278.40;;;;;;5129556;28;20059;-70
2021/10/11 08:20:57;;;;;;;33.67;19.85;;;282.50;2278.40;;;;;;5129611;28;20037;-69
2021/10/11 08:23:24;;;;;;;28.00;21.25;;;307.20;2304.00;;;;;;5129741;28;20080;-70
2021/10/11 08:25:50;;;;;;;33.17;20.48;;;307.20;2304.00;;;;;;5122654;27;20038;-70
2021/10/11 08:28:19;;;;;;;28.77;16.63;;;307.30;2304.00;;;;;;5129177;28;20081;-69
2021/10/11 08:30:46;;;;;;;25.70;16.38;;;307.40;2304.00;;;;;;5129160;28;20030;-69
2021/10/11 08:33:13;;;;;;;27.77;16.25;;;307.50;2304.00;;;;;;5128856;27;20106;-71
2021/10/11 08:35:44;;;;;;;31.45;20.92;;;307.50;2304.00;;;;;;5129849;28;20030;-74
2021/10/11 08:38:16;;;;;;;27.55;17.80;;;307.60;2304.00;;;;;;5129693;27;20742;-69
2021/10/11 08:40:48;;;;;;;26.30;18.25;;;307.60;2304.00;;;;;;5130249;28;20061;-69
2021/10/11 08:43:20;;;;;;;503.77;265.10;;;307.60;2304.00;;;;;;5130827;28;20110;-70
2021/10/11 08:45:52;;;;;;;173.93;88.88;;;307.60;2304.00;;;;;;5131013;28;20028;-70
2021/10/11 08:48:22;;;;;;;71.88;64.32;;;307.70;2304.00;;;;;;5112606;28;20102;-70
2021/10/11 08:50:49;;;;;;;30.30;21.60;;;307.80;2304.00;;;;;;5112186;28;20032;-70
2021/10/11 08:53:14;;;;;;;38.10;27.67;;;307.80;2304.00;;;;;;5130353;28;20043;-70
2021/10/11 08:55:41;;;;;;;67.78;47.88;;;307.90;2304.00;;;;;;5130729;28;20059;-72
2021/10/11 08:58:08;;;;;;;76.18;54.65;;;307.90;2304.00;;;;;;5129917;28;20142;-68
2021/10/11 09:00:36;;;;;;;47.67;32.20;;;307.90;2304.00;;;;;;5130551;28;20015;-71
2021/10/11 09:03:04;;;;;;;34.92;25.50;;;307.90;2304.00;;;;;;5111825;28;20023;-71
2021/10/11 09:05:32;;;;;;;37.22;28.75;;;308.00;2304.00;;;;;;5130338;28;20019;-78
2021/10/11 09:08:06;;;;;;;45.80;31.13;;;308.00;2304.00;;;;;;5126860;28;20231;-71
2021/10/11 09:10:50;;;;;;;42.35;27.92;;;308.00;2304.00;;;;;;5116725;28;20016;-71
2021/10/11 09:13:16;;;;;;;;;;;308.00;2304.00;;;;;;5116693;28;20539;-72
2021/10/11 09:15:42;;;;;;;60.60;36.33;;;307.90;2304.00;;;;;;5115055;28;19998;-80
2021/10/11 09:18:08;;;;;;;53.97;33.40;;;307.90;2304.00;;;;;;5112675;28;20028;-79
2021/10/11 09:20:39;;;;;;;63.80;38.08;;;307.90;2304.00;;;;;;5098087;28;20020;-82
2021/10/11 09:23:06;;;;;;;30.77;20.60;;;307.90;2304.00;;;;;;5116829;28;20034;-81
2021/10/11 09:25:34;;;;;;;36.30;23.02;;;308.00;2304.00;;;;;;5116634;28;20023;-83
2021/10/11 09:28:00;;;;;;;36.40;25.17;;;307.90;2304.00;;;;;;5098323;28;20023;-83
2021/10/11 09:30:32;;;;;;;31.00;21.13;;;307.90;2304.00;;;;;;5084514;28;20380;-82
2021/10/11 09:33:08;;;;;;;20.52;14.55;;;307.90;2304.00;;;;;;5099617;28;20023;-81
2021/10/11 09:35:35;;;;;;;19.95;15.15;;;308.00;2304.00;;;;;;5103006;28;20034;-82
2021/10/11 09:38:02;;;;;;;25.25;18.80;;;308.00;2304.00;;;;;;5115312;28;20028;-80
2021/10/11 09:40:39;;;;;;;32.00;19.40;;;308.00;2304.00;;;;;;5115661;28;20020;-82
2021/10/11 09:43:17;;;;;;;33.22;22.02;;;308.10;2304.00;;;;;;5097297;28;20111;-83
2021/10/11 09:45:43;;;;;;;25.33;16.67;;;308.00;2304.00;;;;;;5111932;28;20012;-82
2021/10/11 09:48:12;;;;;;;27.20;18.50;;;308.00;2304.00;;;;;;5114968;28;20031;-79
2021/10/11 09:50:39;;;;;;;35.35;24.83;;;308.10;2304.00;;;;;;5115515;28;20376;-85
2021/10/11 09:53:08;;;;;;;50.85;33.13;;;308.10;2304.00;;;;;;5096829;28;20035;-81
2021/10/11 09:55:34;;;;;;;67.65;48.95;;;308.00;2304.00;;;;;;5095790;28;20468;-80
2021/10/11 09:58:01;;;;;;;80.25;56.90;;;308.00;2304.00;;;;;;5096125;28;20051;-80
2021/10/11 10:00:27;;;;;;;44.28;31.45;;;308.10;2304.00;;;;;;5096572;28;20027;-80
2021/10/11 10:02:55;;;;;;;47.22;31.63;;;308.00;2304.00;;;;;;5096128;28;20053;-81
2021/10/11 10:05:45;;;;;;;51.65;37.22;;;308.00;2304.00;;;;;;5114816;28;20027;-80
2021/10/11 10:08:17;;;;;;;45.70;31.45;;;308.00;2304.00;;;;;;5096761;28;20073;-80
2021/10/11 10:10:48;;;;;;;46.90;31.42;;;308.00;2304.00;;;;;;5092809;28;20034;-80
2021/10/11 10:13:19;;;;;;;45.13;30.50;;;308.00;2304.00;;;;;;5114739;28;20031;-80
2021/10/11 10:15:47;;;;;;;46.35;26.75;;;307.90;2304.00;;;;;;5115784;28;20084;-83
2021/10/11 10:18:17;;;;;;;38.40;25.15;;;307.90;2304.00;;;;;;5097914;28;20040;-84
2021/10/11 10:20:58;;;;;;;49.03;29.00;;;308.00;2304.00;;;;;;5096400;28;20098;-84
2021/10/11 10:23:35;;;;;;;81.97;43.60;;;307.90;2304.00;;;;;;5464967;22;20046;-67
2021/10/11 10:26:08;;;;;;;90.70;48.05;;;307.80;2304.00;;;;;;5012793;28;20034;-67
2021/10/11 10:28:53;;;;;;;79.13;54.45;;;307.80;2304.00;;;;;;5013212;28;20091;-67
2021/10/11 10:31:27;;;;;;;54.28;36.03;;;307.80;2304.00;;;;;;5009957;28;20682;-67
2021/10/11 10:33:53;;;;;;;37.53;26.08;;;307.70;2304.00;;;;;;5012161;28;20034;-67
2021/10/11 10:36:30;;;;;;;33.22;22.77;;;307.70;2304.00;;;;;;5012425;28;20726;-67
2021/10/11 10:39:08;;;;;;;28.80;20.45;;;307.70;2304.00;;;;;;5011827;28;20022;-68
2021/10/11 10:41:35;;;;;;;33.58;23.08;;;307.70;2304.00;;;;;;5013020;28;20053;-68
2021/10/11 10:44:21;;;;;;;37.80;28.65;;;307.70;2304.00;;;;;;5012839;28;20096;-67
2021/10/11 10:46:54;;;;;;;39.03;26.40;;;307.70;2304.00;;;;;;5010877;28;20034;-65
2021/10/11 10:49:32;;;;;;;44.00;25.90;;;307.70;2304.00;;;;;;5013065;28;20026;-66
2021/10/11 10:51:59;;;;;;;75.22;42.47;;;307.70;2304.00;;;;;;5012551;28;20040;-64
2021/10/11 10:54:49;;;;;;;129.07;65.80;;;307.70;2304.00;;;;;;5012464;28;20010;-66
2021/10/11 10:57:23;;;;;;;54.22;31.63;;;307.70;2304.00;;;;;;5011497;28;20036;-64
2021/10/11 10:59:58;;;;;;;55.25;31.55;;;307.70;2304.00;;;;;;5011737;28;20141;-65
2021/10/11 11:02:24;;;;;;;82.88;41.63;;;307.60;2304.00;;;;;;5013237;28;20050;-66
2021/10/11 11:04:57;;;;;;;104.97;48.88;;;307.60;2304.00;;;;;;5013321;28;20529;-65
2021/10/11 11:07:37;;;;;;;165.77;73.13;;;307.50;2304.00;;;;;;5013098;28;20121;-66
2021/10/11 11:10:13;;;;;;;62.05;32.92;;;307.50;2304.00;;;;;;5010817;28;20026;-65
2021/10/11 11:12:44;;;;;;;37.70;25.10;;;307.50;2304.00;;;;;;5011243;28;20500;-66
2021/10/11 11:15:32;;;;;;;31.65;20.80;;;307.40;2304.00;;;;;;5012098;28;20109;-66
2021/10/11 11:18:02;;;;;;;24.95;18.50;;;307.30;2304.00;;;;;;5013692;28;20057;-66
2021/10/11 11:20:39;;;;;;;38.63;23.23;;;307.40;2304.00;;;;;;5013513;28;20073;-66
2021/10/11 11:23:08;;;;;;;52.67;29.60;;;307.30;2304.00;;;;;;5018971;28;20041;-65
2021/10/11 11:25:45;;;;;;;48.58;28.60;;;307.30;2304.00;;;;;;5033423;28;20018;-65
2021/10/11 11:28:23;;;;;;;37.45;20.85;;;307.40;2304.00;;;;;;5033711;28;20120;-66
2021/10/11 11:30:54;;;;;;;37.13;19.63;;;307.60;2304.00;;;;;;5032874;28;20049;-66
2021/10/11 11:33:22;;;;;;;76.05;36.17;;;307.50;2304.00;;;;;;5033297;28;20025;-66
2021/10/11 11:35:51;;;;;;;94.63;41.33;;;307.50;2304.00;;;;;;5032612;28;20029;-64
2021/10/11 11:38:26;;;;;;;106.07;45.05;;;307.50;2304.00;;;;;;5032336;28;20116;-65
2021/10/11 11:40:52;;;;;;;60.72;34.00;;;307.60;2304.00;;;;;;5032774;28;20026;-65
2021/10/11 11:43:19;;;;;;;48.65;28.25;;;307.70;2304.00;;;;;;5031983;28;20108;-65
2021/10/11 11:45:48;;;;;;;32.72;22.27;;;307.60;2304.00;;;;;;5032245;28;20024;-65
2021/10/11 11:48:17;;;;;;;38.95;23.73;;;307.60;2304.00;;;;;;5032538;28;20395;-66
2021/10/11 11:50:45;;;;;;;38.67;23.63;;;307.50;2304.00;;;;;;5032339;28;20023;-65
2021/10/11 11:53:13;;;;;;;30.00;18.65;;;307.60;2304.00;;;;;;5031983;28;20056;-65
2021/10/11 11:55:40;;;;;;;34.53;21.33;;;307.60;2304.00;;;;;;5032280;28;20030;-65
2021/10/11 11:58:15;;;;;;;234.38;136.30;;;307.60;2304.00;;;;;;5032635;28;20045;-65
2021/10/11 12:00:50;;;;;;;243.38;150.52;;;307.70;2304.00;;;;;;5031082;28;20033;-65
2021/10/11 12:03:21;;;;;;;393.10;268.35;;;307.60;2304.00;;;;;;5030369;28;20123;-65
2021/10/11 12:05:52;;;;;;;131.25;88.28;;;307.70;2304.00;;;;;;5032128;28;20026;-65
2021/10/11 12:08:19;;;;;;;25.92;19.20;;;307.70;2304.00;;;;;;5032264;28;20029;-65
2021/10/11 12:11:06;;;;;;;34.53;23.10;;;307.70;2304.00;;;;;;5032287;28;20045;-65
2021/10/11 12:13:34;;;;;;;29.23;20.90;;;307.60;2304.00;;;;;;5029768;28;20382;-65
2021/10/11 12:16:05;;;;;;;30.52;19.63;;;307.70;2304.00;;;;;;5031152;28;20477;-65
2021/10/11 12:18:44;;;;;;;29.13;18.48;;;307.70;2304.00;;;;;;5030953;28;20033;-65
2021/10/11 12:21:30;;;;;;;57.67;48.33;;;307.70;2304.00;;;;;;5031180;28;20022;-65
2021/10/11 12:24:12;;;;;;;108.18;74.57;;;307.70;2304.00;;;;;;5030387;28;20458;-64
2021/10/11 12:26:49;;;;;;;1999.90;999.90;;;307.70;2304.00;;;;;;5031739;28;20362;-65
2021/10/11 12:29:16;;;;;;;1866.55;849.58;;;307.70;2304.00;;;;;;5031092;28;20117;-65
2021/10/11 12:31:42;;;;;;;446.88;264.95;;;307.80;2304.00;;;;;;5031167;28;20037;-65
2021/10/11 12:34:13;;;;;;;146.52;95.97;;;307.70;2304.00;;;;;;5030859;28;20056;-65
2021/10/11 12:36:50;;;;;;;53.95;32.00;;;307.80;2304.00;;;;;;5030711;28;20397;-65
2021/10/11 12:39:18;;;;;;;143.38;127.82;;;307.80;2304.00;;;;;;5031075;28;20034;-64
2021/10/11 12:41:48;;;;;;;61.42;50.17;;;307.70;2304.00;;;;;;5030968;28;20029;-65
2021/10/11 12:44:18;;;;;;;33.80;22.63;;;307.70;2304.00;;;;;;5033693;28;20137;-65
2021/10/11 12:46:46;;;;;;;28.63;19.08;;;307.80;2304.00;;;;;;5035018;28;20022;-65
2021/10/11 12:49:12;;;;;;;27.70;17.25;;;307.90;2304.00;;;;;;5034767;28;20026;-66
2021/10/11 12:51:39;;;;;;;36.42;21.98;;;307.90;2304.00;;;;;;5034340;28;20025;-64
2021/10/11 12:54:11;;;;;;;30.77;22.90;;;307.90;2304.00;;;;;;5017002;28;20022;-65
2021/10/11 12:56:39;;;;;;;38.83;31.92;;;307.80;2304.00;;;;;;5032906;28;20099;-64
2021/10/11 12:59:06;;;;;;;44.85;37.90;;;307.90;2304.00;;;;;;5034121;28;20057;-65
2021/10/11 13:01:36;;;;;;;32.38;25.02;;;307.90;2304.00;;;;;;5034377;28;20061;-66
2021/10/11 13:04:03;;;;;;;31.27;20.70;;;307.80;2304.00;;;;;;5033751;28;20029;-65
2021/10/11 13:06:31;;;;;;;23.88;17.00;;;307.70;2304.00;;;;;;5034331;28;20025;-65
2021/10/11 13:08:58;;;;;;;24.42;14.73;;;307.70;2304.00;;;;;;5016975;28;20477;-65
2021/10/11 13:11:25;;;;;;;24.38;15.98;;;307.70;2304.00;;;;;;5034220;28;20083;-66
2021/10/11 13:13:51;;;;;;;27.42;17.77;;;307.70;2304.00;;;;;;5031780;28;20101;-65
2021/10/11 13:16:18;;;;;;;30.65;20.23;;;307.70;2304.00;;;;;;5034148;28;20025;-64
2021/10/11 13:18:43;;;;;;;38.55;26.85;;;307.70;2304.00;;;;;;5034046;28;20021;-64
2021/10/11 13:21:09;;;;;;;41.38;25.88;;;307.70;2304.00;;;;;;5034394;28;20021;-64
2021/10/11 13:23:38;;;;;;;44.60;30.10;;;307.70;2304.00;;;;;;5034600;28;20048;-65
2021/10/11 13:26:05;;;;;;;38.50;25.88;;;307.70;2304.00;;;;;;5034973;28;20021;-65
2021/10/11 13:28:31;;;;;;;29.92;19.65;;;307.70;2304.00;;;;;;5038016;28;20470;-65
2021/10/11 14:27:41;;;;;;;45.65;34.63;;;307.60;2304.00;;;;;;5034216;28;20149;-66
2021/10/11 14:30:41;;;;;;;45.67;39.78;;;307.60;2304.00;;;;;;5033695;28;20461;-65
2021/10/11 14:33:56;;;;;;;65.57;57.92;;;307.60;2304.00;;;;;;5034305;28;20454;-65
2021/10/11 16:00:20;;;;;;;51.80;26.48;;;307.40;2304.00;;;;;;5013295;28;20022;-67
2021/10/11 16:02:48;;;;;;;34.38;24.70;;;307.40;2304.00;;;;;;5013550;28;20033;-67
2021/10/11 16:05:14;;;;;;;36.45;25.17;;;307.40;2304.00;;;;;;5013311;28;20478;-67
2021/10/11 16:07:41;;;;;;;54.67;36.55;;;307.40;2304.00;;;;;;5013616;28;20029;-67
2021/10/11 16:10:08;;;;;;;65.55;42.33;;;307.40;2304.00;;;;;;5013420;28;20054;-67
2021/10/11 16:12:34;;;;;;;52.50;35.20;;;307.40;2304.00;;;;;;5013617;28;20393;-68
2021/10/11 16:15:00;;;;;;;59.88;40.35;;;307.40;2304.00;;;;;;5012073;28;20030;-67
2021/10/11 16:17:26;;;;;;;57.03;40.28;;;307.40;2304.00;;;;;;5013218;28;20152;-67
2021/10/11 16:19:52;;;;;;;50.08;35.97;;;307.40;2304.00;;;;;;5016425;28;20030;-67
2021/10/11 16:22:18;;;;;;;45.33;30.52;;;307.40;2304.00;;;;;;5017328;28;20033;-67
2021/10/11 16:24:43;;;;;;;47.92;34.28;;;307.40;2304.00;;;;;;5035550;28;20136;-67
2021/10/11 16:27:09;;;;;;;43.28;30.60;;;307.40;2304.00;;;;;;5037029;28;20028;-68
2021/10/11 16:29:37;;;;;;;54.13;40.05;;;307.40;2304.00;;;;;;5036848;28;20087;-67
2021/10/11 16:32:05;;;;;;;145.48;102.45;;;307.30;2304.00;;;;;;5037073;28;20033;-67
2021/10/11 16:34:32;;;;;;;63.08;41.20;;;307.30;2304.00;;;;;;5037108;28;20392;-67
2021/10/11 16:36:57;;;;;;;60.33;42.80;;;307.40;2304.00;;;;;;5036815;28;20038;-68
2021/10/11 16:39:23;;;;;;;48.30;37.45;;;307.40;2304.00;;;;;;5036470;28;20436;-68
2021/10/11 16:41:49;;;;;;;65.50;47.83;;;307.40;2304.00;;;;;;5036611;28;20044;-67
2021/10/11 16:44:15;;;;;;;52.55;37.47;;;307.40;2304.00;;;;;;5036723;28;20022;-67
2021/10/11 16:46:41;;;;;;;55.42;42.13;;;307.30;2304.00;;;;;;5036564;28;20025;-68
2021/10/11 16:49:07;;;;;;;170.18;102.90;;;307.30;2304.00;;;;;;5036109;28;20086;-67
2021/10/11 16:51:33;;;;;;;131.43;88.90;;;307.30;2304.00;;;;;;5036551;28;20026;-67
2021/10/11 16:56:26;;;;;;;75.07;47.95;;;307.20;2304.00;;;;;;5034886;28;20561;-67
2021/10/11 16:58:52;;;;;;;60.90;40.65;;;307.30;2304.00;;;;;;5035839;28;20060;-67
2021/10/11 17:01:19;;;;;;;72.90;50.72;;;307.30;2304.00;;;;;;5018155;28;20436;-67
2021/10/11 17:03:45;;;;;;;62.40;43.08;;;307.30;2304.00;;;;;;5035567;28;20029;-67
2021/10/11 17:06:11;;;;;;;58.92;39.20;;;307.30;2304.00;;;;;;5035212;28;20478;-67
2021/10/11 17:08:37;;;;;;;61.80;41.25;;;307.20;2304.00;;;;;;5018816;28;20359;-65
2021/10/11 17:11:04;;;;;;;76.18;49.42;;;307.20;2304.00;;;;;;5018036;28;20441;-67
2021/10/11 17:13:30;;;;;;;84.55;58.25;;;307.20;2304.00;;;;;;5036011;28;20079;-67
2021/10/11 17:15:56;;;;;;;132.32;80.38;;;307.20;2304.00;;;;;;5035908;28;20109;-68
2021/10/11 17:18:22;;;;;;;108.35;77.82;;;307.20;2304.00;;;;;;5035870;28;20095;-67
2021/10/11 17:20:48;;;;;;;99.10;66.07;;;282.50;2278.40;;;;;;5035685;28;20482;-67
2021/10/11 17:23:14;;;;;;;74.28;52.05;;;282.50;2278.40;;;;;;5017345;28;20053;-68
2021/10/11 17:25:40;;;;;;;69.32;46.25;;;307.20;2304.00;;;;;;5035746;28;20021;-68
2021/10/11 17:28:06;;;;;;;61.17;43.05;;;282.50;2278.40;;;;;;5035783;28;20032;-67
2021/10/11 17:30:33;;;;;;;56.25;39.17;;;282.50;2278.40;;;;;;5034982;28;20030;-68
2021/10/11 17:32:59;;;;;;;67.88;45.63;;;282.50;2278.40;;;;;;5034956;28;20018;-67
2021/10/11 17:35:25;;;;;;;74.40;50.50;;;282.50;2278.40;;;;;;5034841;28;20027;-67
2021/10/11 17:37:52;;;;;;;57.00;40.63;;;282.40;2278.40;;;;;;5035564;28;20116;-67
2021/10/11 17:40:20;;;;;;;59.95;45.25;;;282.40;2278.40;;;;;;5035201;28;20424;-68
2021/10/11 17:42:47;;;;;;;54.13;40.58;;;282.40;2278.40;;;;;;5035149;28;20049;-68
2021/10/11 17:45:13;;;;;;;61.85;45.47;;;282.40;2278.40;;;;;;5035325;28;20021;-67
2021/10/11 17:47:39;;;;;;;51.88;38.22;;;282.40;2278.40;;;;;;5035371;28;20035;-68
2021/10/11 17:50:06;;;;;;;57.75;43.08;;;282.40;2278.40;;;;;;5035183;28;20073;-67
2021/10/11 17:52:33;;;;;;;52.30;36.85;;;282.40;2278.40;;;;;;5035395;28;20040;-67
2021/10/11 17:54:59;;;;;;;55.83;38.25;;;282.40;2278.40;;;;;;5035276;28;20021;-67
2021/10/11 17:57:26;;;;;;;42.85;30.65;;;282.40;2278.40;;;;;;5035036;28;20085;-68
2021/10/11 17:59:51;;;;;;;53.65;32.53;;;282.40;2278.40;;;;;;5035182;28;20021;-68
2021/10/11 18:02:18;;;;;;;46.72;31.33;;;282.40;2278.40;;;;;;5035044;28;20385;-67
2021/10/11 18:04:43;;;;;;;52.83;35.60;;;282.40;2278.40;;;;;;5035191;28;20072;-68
2021/10/11 18:07:09;;;;;;;44.83;33.10;;;282.30;2278.40;;;;;;5034975;28;20029;-69
2021/10/11 18:09:35;;;;;;;42.63;30.88;;;282.30;2278.40;;;;;;5035014;28;20033;-67
2021/10/11 18:12:01;;;;;;;46.15;30.95;;;282.30;2278.40;;;;;;5034729;28;20029;-67
2021/10/11 18:14:27;;;;;;;50.08;34.83;;;282.30;2278.40;;;;;;5035097;28;20474;-67
2021/10/11 18:16:54;;;;;;;46.15;32.90;;;282.30;2278.40;;;;;;5034682;28;20563;-67
2021/10/11 18:19:20;;;;;;;51.08;34.30;;;282.30;2278.40;;;;;;5034682;28;20469;-67
2021/10/11 18:21:46;;;;;;;58.13;36.00;;;282.30;2278.40;;;;;;5034587;28;20072;-67
2021/10/11 18:24:12;;;;;;;52.25;34.78;;;282.30;2278.40;;;;;;5034678;28;20565;-67
2021/10/11 18:26:38;;;;;;;55.03;36.80;;;282.30;2278.40;;;;;;5034822;28;20021;-67
2021/10/11 18:29:06;;;;;;;55.20;34.35;;;282.20;2278.40;;;;;;5034342;28;20029;-68
2021/10/11 18:31:34;;;;;;;54.38;34.63;;;282.30;2278.40;;;;;;5034573;28;20078;-67
2021/10/11 18:34:03;;;;;;;52.75;34.83;;;282.20;2278.40;;;;;;5034538;28;20037;-67
2021/10/11 18:36:33;;;;;;;51.17;34.50;;;282.20;2278.40;;;;;;5034197;28;20482;-67
2021/10/11 18:39:01;;;;;;;57.90;36.72;;;282.20;2278.40;;;;;;5034235;28;20098;-67
2021/10/11 18:41:27;;;;;;;50.25;35.00;;;282.20;2278.40;;;;;;5033253;28;20021;-67
2021/10/11 18:43:53;;;;;;;48.22;32.70;;;282.20;2278.40;;;;;;5034298;28;20087;-67
2021/10/11 18:46:19;;;;;;;47.60;30.35;;;282.20;2278.40;;;;;;5034258;28;20056;-67
2021/10/11 18:48:46;;;;;;;55.58;30.58;;;282.20;2278.40;;;;;;5016511;28;20115;-67
2021/10/11 18:51:12;;;;;;;41.33;28.27;;;282.20;2278.40;;;;;;5033929;28;20461;-67
2021/10/11 18:53:39;;;;;;;47.53;31.58;;;282.20;2278.40;;;;;;5034100;28;20028;-66
2021/10/11 18:56:07;;;;;;;51.55;33.42;;;282.20;2278.40;;;;;;5034035;28;20124;-66
2021/10/11 18:58:33;;;;;;;54.17;37.67;;;282.20;2278.40;;;;;;5034148;28;20037;-67
2021/10/11 19:00:59;;;;;;;50.25;35.35;;;282.20;2278.40;;;;;;5033975;28;20029;-67
2021/10/11 19:03:26;;;;;;;41.10;27.58;;;282.30;2278.40;;;;;;5033744;28;20033;-67
2021/10/11 19:05:51;;;;;;;44.83;32.30;;;282.30;2278.40;;;;;;5034072;28;20036;-66
2021/10/11 19:08:18;;;;;;;48.25;30.70;;;282.20;2278.40;;;;;;5034126;28;20030;-67
2021/10/11 19:10:45;;;;;;;37.33;27.75;;;282.20;2278.40;;;;;;5033970;28;20025;-62
2021/10/11 19:13:15;;;;;;;35.88;27.60;;;282.30;2278.40;;;;;;5032841;28;20037;-66
2021/10/11 19:15:46;;;;;;;43.33;27.60;;;282.30;2278.40;;;;;;5033530;28;20029;-65
2021/10/11 19:18:13;;;;;;;42.50;28.48;;;282.30;2278.40;;;;;;5033697;28;20037;-67
2021/10/11 19:20:41;;;;;;;43.65;28.77;;;282.30;2278.40;;;;;;5032459;28;20025;-67
2021/10/11 19:23:07;;;;;;;39.60;27.83;;;282.30;2278.40;;;;;;5031988;28;20045;-65
2021/10/11 19:25:33;;;;;;;44.05;30.10;;;282.30;2278.40;;;;;;5014374;28;20594;-66
2021/10/11 19:28:01;;;;;;;43.13;27.13;;;282.30;2278.40;;;;;;5032341;28;20067;-65
2021/10/11 19:30:28;;;;;;;38.08;26.25;;;282.30;2278.40;;;;;;5032176;28;20025;-67
2021/10/11 19:32:54;;;;;;;36.58;26.77;;;282.30;2278.40;;;;;;5031632;28;20025;-65
2021/10/11 19:35:21;;;;;;;38.17;25.55;;;282.30;2278.40;;;;;;5031845;28;20029;-66
2021/10/11 19:37:52;;;;;;;37.72;26.50;;;282.30;2278.40;;;;;;5032188;28;20038;-65
2021/10/11 19:40:19;;;;;;;47.22;28.60;;;282.30;2278.40;;;;;;5029377;28;20014;-66
2021/10/11 19:42:45;;;;;;;46.88;30.85;;;282.30;2278.40;;;;;;5031470;28;20022;-66
2021/10/11 19:45:12;;;;;;;61.15;38.72;;;282.40;2278.40;;;;;;5031522;28;20105;-67
2021/10/11 19:47:38;;;;;;;68.50;40.83;;;282.30;2278.40;;;;;;5009760;28;20511;-67
2021/10/11 19:50:08;;;;;;;68.15;43.22;;;282.20;2278.40;;;;;;5030861;28;20025;-66
2021/10/11 19:52:34;;;;;;;76.07;46.38;;;282.20;2278.40;;;;;;5032605;28;20523;-65
2021/10/11 19:55:00;;;;;;;73.97;47.65;;;282.20;2278.40;;;;;;5033116;28;20021;-65
2021/10/11 19:57:26;;;;;;;77.22;45.85;;;282.10;2278.40;;;;;;5032969;28;20152;-65
2021/10/11 19:59:52;;;;;;;78.68;50.63;;;282.10;2278.40;;;;;;5015287;28;20067;-66
2021/10/11 20:02:20;;;;;;;83.85;55.38;;;282.10;2278.40;;;;;;5032969;28;20082;-65
2021/10/11 20:04:45;;;;;;;81.03;55.25;;;282.10;2278.40;;;;;;5033310;28;20072;-66
2021/10/11 20:07:11;;;;;;;76.80;51.90;;;282.10;2278.40;;;;;;5033184;28;20026;-65
2021/10/11 20:09:37;;;;;;;66.05;45.33;;;282.20;2278.40;;;;;;5033197;28;20405;-64
2021/10/11 20:12:04;;;;;;;73.22;45.63;;;282.10;2278.40;;;;;;5033148;28;20021;-64
2021/10/11 20:14:30;;;;;;;59.63;40.90;;;282.10;2278.40;;;;;;5032791;28;20029;-64
2021/10/11 20:16:56;;;;;;;53.63;36.30;;;282.10;2278.40;;;;;;5033103;28;20030;-68
2021/10/11 20:19:22;;;;;;;54.10;37.35;;;282.10;2278.40;;;;;;5015043;28;20057;-66
2021/10/11 20:21:48;;;;;;;54.17;36.63;;;282.10;2278.40;;;;;;5033247;28;20052;-65
2021/10/11 20:24:14;;;;;;;55.28;36.72;;;282.10;2278.40;;;;;;5033025;28;20045;-66
2021/10/11 20:26:40;;;;;;;59.70;36.40;;;282.10;2278.40;;;;;;5033210;28;20074;-66
2021/10/11 20:29:06;;;;;;;54.13;35.03;;;282.00;2278.40;;;;;;4992807;28;20045;-66
2021/10/11 20:31:33;;;;;;;52.92;34.40;;;282.00;2278.40;;;;;;5031811;28;20024;-66
2021/10/11 20:33:59;;;;;;;47.45;29.75;;;282.00;2278.40;;;;;;5031868;28;20067;-66
2021/10/11 20:36:25;;;;;;;44.40;31.10;;;281.90;2278.40;;;;;;5031917;28;20477;-66
2021/10/11 20:38:52;;;;;;;40.90;30.10;;;281.90;2278.40;;;;;;5031943;28;20021;-66
2021/10/11 20:41:18;;;;;;;46.88;31.15;;;281.90;2278.40;;;;;;5014227;28;20409;-66
2021/10/11 20:43:44;;;;;;;43.08;28.17;;;281.90;2278.40;;;;;;5031877;28;20017;-66
2021/10/11 20:46:10;;;;;;;37.65;27.30;;;281.90;2278.40;;;;;;5032042;28;20382;-66
2021/10/11 20:48:36;;;;;;;40.40;26.15;;;281.80;2278.40;;;;;;5032082;28;20424;-66
2021/10/11 20:51:02;;;;;;;38.20;26.30;;;281.90;2278.40;;;;;;5032458;28;20040;-66
2021/10/11 20:53:28;;;;;;;41.47;26.75;;;281.80;2278.40;;;;;;5014663;28;20028;-66
2021/10/11 20:55:53;;;;;;;33.95;24.23;;;281.90;2278.40;;;;;;5032378;28;20389;-66
2021/10/11 20:58:20;;;;;;;34.85;24.52;;;281.90;2278.40;;;;;;5032313;28;20029;-66
2021/10/11 21:00:46;;;;;;;36.42;25.23;;;281.90;2278.40;;;;;;5032260;28;20029;-66
2021/10/11 21:03:14;;;;;;;40.05;24.48;;;281.90;2278.40;;;;;;5032306;28;20017;-66
2021/10/11 21:05:41;;;;;;;35.25;24.38;;;281.90;2278.40;;;;;;5017156;28;20040;-66
2021/10/11 21:08:07;;;;;;;33.15;24.10;;;281.80;2278.40;;;;;;5035795;28;20458;-66
2021/10/11 21:10:33;;;;;;;38.20;24.67;;;281.90;2278.40;;;;;;5035812;28;20033;-66
2021/10/11 21:12:59;;;;;;;34.92;25.27;;;281.90;2278.40;;;;;;5017512;28;20040;-66
2021/10/11 21:15:25;;;;;;;31.27;23.73;;;281.80;2278.40;;;;;;5035484;28;20026;-66
2021/10/11 21:17:50;;;;;;;35.40;24.25;;;281.80;2278.40;;;;;;5017795;28;20069;-66
2021/10/11 21:20:16;;;;;;;34.45;25.00;;;281.80;2278.40;;;;;;5035645;28;20025;-66
2021/10/11 21:22:42;;;;;;;32.72;24.50;;;281.80;2278.40;;;;;;5035343;28;20383;-66
2021/10/11 21:25:08;;;;;;;41.80;27.02;;;281.80;2278.40;;;;;;5035674;28;20044;-66
2021/10/11 21:27:37;;;;;;;38.55;27.80;;;281.80;2278.40;;;;;;5032927;28;20053;-66
2021/10/11 21:30:03;;;;;;;39.65;27.70;;;281.90;2278.40;;;;;;5035447;28;20030;-66
2021/10/11 21:32:29;;;;;;;36.72;26.38;;;281.90;2278.40;;;;;;5035541;28;20377;-66
2021/10/11 21:34:55;;;;;;;31.80;22.63;;;281.90;2278.40;;;;;;5035413;28;20022;-66
2021/10/11 21:37:21;;;;;;;32.15;24.25;;;281.90;2278.40;;;;;;5035343;28;20026;-65
2021/10/11 21:39:47;;;;;;;37.33;24.45;;;281.90;2278.40;;;;;;5035147;28;20038;-66
2021/10/11 21:42:13;;;;;;;37.00;25.02;;;281.80;2278.40;;;;;;5035179;28;20104;-65
2021/10/11 21:44:39;;;;;;;40.08;25.73;;;281.80;2278.40;;;;;;5035317;28;20032;-65
2021/10/11 21:47:05;;;;;;;41.13;25.55;;;281.90;2278.40;;;;;;5035620;28;20026;-65
2021/10/11 21:49:32;;;;;;;42.13;26.92;;;282.00;2278.40;;;;;;5035563;28;20030;-65
2021/10/11 21:51:58;;;;;;;43.40;26.67;;;281.80;2278.40;;;;;;5017797;28;20037;-65
2021/10/11 21:54:24;;;;;;;36.53;25.25;;;282.00;2278.40;;;;;;5035479;28;20052;-65
2021/10/11 21:56:50;;;;;;;40.63;26.38;;;282.00;2278.40;;;;;;5035321;28;20235;-65
2021/10/11 21:59:17;;;;;;;39.17;26.88;;;282.00;2278.40;;;;;;5035412;28;20381;-65
2021/10/11 22:01:43;;;;;;;37.65;26.25;;;282.00;2278.40;;;;;;5035371;28;20025;-65
2021/10/11 22:04:09;;;;;;;41.30;28.13;;;282.10;2278.40;;;;;;5035291;28;20025;-65
2021/10/11 22:06:34;;;;;;;43.38;28.60;;;282.00;2278.40;;;;;;5035285;28;20109;-65
2021/10/11 22:09:00;;;;;;;37.80;27.83;;;282.00;2278.40;;;;;;5035174;28;20386;-65
2021/10/11 22:11:26;;;;;;;45.33;31.85;;;282.10;2278.40;;;;;;5035196;28;20018;-65
2021/10/11 22:13:52;;;;;;;45.92;31.08;;;282.10;2278.40;;;;;;5017386;28;20030;-65
2021/10/11 22:16:18;;;;;;;46.90;33.30;;;282.10;2278.40;;;;;;5035068;28;20027;-65
2021/10/11 22:18:44;;;;;;;46.92;33.58;;;282.10;2278.40;;;;;;5034901;28;20393;-65
2021/10/11 22:21:11;;;;;;;52.70;35.03;;;282.10;2278.40;;;;;;5035140;28;20026;-65
2021/10/11 22:23:37;;;;;;;50.65;35.65;;;282.10;2278.40;;;;;;5034332;28;20132;-65
2021/10/11 22:26:04;;;;;;;50.78;35.42;;;282.10;2278.40;;;;;;5034862;28;20109;-65